LOWL/LNZ METAR and TAF weather

Enter ICAO airport designator
Station Type Date Time Source
LOWL METAR 2019/02/23 22:50 UTC NOAA

LOWL 232250Z AUTO 10005KT 9999 NSC M03/M09 Q1040


Station Type Date Time Source
LOWL Decoded METAR 2019/02/23 22:50 UTC NOAA

Linz / Hoersching-Flughafen, Austria (LOWL) 48-14N 014-11E 313M
Feb 23, 2019 - 05:50 PM EST / 2019.02.23 2250 UTC
Wind: from the E (100 degrees) at 6 MPH (5 KT):0
Visibility: greater than 7 mile(s):0
Temperature: 26 F (-3 C)
Windchill: 19 F (-7 C):1
Dew Point: 15 F (-9 C)
Relative Humidity: 63%
Pressure (altimeter): 30.71 in. Hg (1040 hPa)
ob: LOWL 232250Z AUTO 10005KT 9999 NSC M03/M09 Q1040
cycle: 23

Station Type Date Time Source
LOWL TAF 2019/02/23 18:21 UTC NOAA

TAF LOWL 231715Z 2318/2418 08005KT CAVOK TX04/2415Z TNM06/2406Z
BECMG 2411/2413 9999 SCT050 BKN100


Example: see airport list